createdAt,value
2023-04-13T00:00:36.050Z,936.66
2023-04-13T00:01:36.038Z,936.60
2023-04-13T00:02:36.164Z,936.57
2023-04-13T00:03:36.193Z,936.59
2023-04-13T00:04:35.984Z,936.58
2023-04-13T00:05:43.224Z,936.61
2023-04-13T00:06:35.987Z,936.63
2023-04-13T00:07:35.953Z,936.64
2023-04-13T00:08:35.944Z,936.64
2023-04-13T00:09:35.953Z,936.68
2023-04-13T00:10:35.931Z,936.62
2023-04-13T00:11:35.910Z,936.65
2023-04-13T00:12:43.179Z,936.62
2023-04-13T00:13:36.018Z,936.63
2023-04-13T00:14:36.106Z,936.61
2023-04-13T00:15:35.969Z,936.60
2023-04-13T00:16:35.916Z,936.64
2023-04-13T00:17:35.987Z,936.61
2023-04-13T00:18:35.929Z,936.63
2023-04-13T00:19:35.852Z,936.67
2023-04-13T00:20:35.838Z,936.71
2023-04-13T00:21:35.801Z,936.72
2023-04-13T00:22:35.822Z,936.78
2023-04-13T00:23:35.909Z,936.78
2023-04-13T00:24:35.782Z,936.79
2023-04-13T00:25:44.681Z,936.83
2023-04-13T00:26:35.740Z,936.85
2023-04-13T00:27:35.731Z,936.82
2023-04-13T00:28:35.728Z,936.86
2023-04-13T00:29:35.726Z,936.87
2023-04-13T00:30:35.731Z,936.91
2023-04-13T00:31:35.686Z,936.92
2023-04-13T00:32:35.732Z,936.92
2023-04-13T00:33:35.654Z,936.95
2023-04-13T00:34:35.644Z,936.93
2023-04-13T00:35:35.652Z,936.91
2023-04-13T00:36:35.629Z,936.95
2023-04-13T00:37:35.610Z,936.91
2023-04-13T00:38:35.604Z,936.86
2023-04-13T00:39:35.602Z,936.86
2023-04-13T00:40:35.597Z,936.85
2023-04-13T00:41:35.590Z,936.84
2023-04-13T00:42:35.558Z,936.82
2023-04-13T00:43:35.539Z,936.81
2023-04-13T00:44:35.530Z,936.79
2023-04-13T00:45:35.519Z,936.75
2023-04-13T00:46:35.567Z,936.79
2023-04-13T00:47:35.609Z,936.79
2023-04-13T00:48:35.533Z,936.83
2023-04-13T00:49:35.490Z,936.73
2023-04-13T00:50:35.460Z,936.73
2023-04-13T00:51:35.452Z,936.78
2023-04-13T00:52:35.462Z,936.75
2023-04-13T00:53:35.443Z,936.76
2023-04-13T00:54:35.510Z,936.76
2023-04-13T00:55:35.402Z,936.77
2023-04-13T00:56:35.414Z,936.77
2023-04-13T00:57:35.412Z,936.79
2023-04-13T00:58:35.387Z,936.79
2023-04-13T00:59:35.382Z,936.78
2023-04-13T01:00:35.358Z,936.77
2023-04-13T01:01:35.413Z,936.74
2023-04-13T01:02:35.471Z,936.79
2023-04-13T01:03:35.353Z,936.79
2023-04-13T01:04:35.533Z,936.82
2023-04-13T01:05:36.437Z,936.82
2023-04-13T01:06:35.307Z,936.80
2023-04-13T01:07:35.273Z,936.79
2023-04-13T01:08:35.286Z,936.80
2023-04-13T01:09:35.245Z,936.73
2023-04-13T01:10:35.237Z,936.76
2023-04-13T01:11:35.220Z,936.72
2023-04-13T01:12:35.243Z,936.76
2023-04-13T01:13:35.204Z,936.71
2023-04-13T01:14:35.211Z,936.64
2023-04-13T01:15:35.212Z,936.63
2023-04-13T01:16:35.168Z,936.60
2023-04-13T01:17:35.192Z,936.63
2023-04-13T01:18:35.148Z,936.55
2023-04-13T01:19:35.129Z,936.59
2023-04-13T01:20:35.135Z,936.61
2023-04-13T01:21:35.128Z,936.69
2023-04-13T01:22:35.115Z,936.66
2023-04-13T01:23:35.083Z,936.69
2023-04-13T01:24:35.087Z,936.68
2023-04-13T01:25:35.076Z,936.72
2023-04-13T01:26:35.060Z,936.72
2023-04-13T01:27:35.061Z,936.70
2023-04-13T01:28:35.029Z,936.67
2023-04-13T01:29:35.015Z,936.66
2023-04-13T01:30:35.017Z,936.69
2023-04-13T01:31:35.082Z,936.61
2023-04-13T01:32:35.053Z,936.59
2023-04-13T01:33:34.969Z,936.62
2023-04-13T01:34:34.959Z,936.59
2023-04-13T01:35:34.956Z,936.67
2023-04-13T01:36:34.958Z,936.63
2023-04-13T01:37:34.943Z,936.65
2023-04-13T01:38:34.913Z,936.70
2023-04-13T01:39:34.901Z,936.68
2023-04-13T01:40:34.925Z,936.71
2023-04-13T01:41:34.895Z,936.76
2023-04-13T01:42:34.877Z,936.80
2023-04-13T01:43:34.855Z,936.81
2023-04-13T01:44:34.854Z,936.86
2023-04-13T01:45:34.890Z,936.90
2023-04-13T01:46:34.845Z,936.91
2023-04-13T01:47:34.862Z,936.93
2023-04-13T01:48:34.815Z,936.98
2023-04-13T01:49:34.785Z,937.04
2023-04-13T01:50:34.797Z,937.10
2023-04-13T01:51:34.818Z,937.09
2023-04-13T01:52:34.778Z,937.12
2023-04-13T01:53:34.742Z,937.17
2023-04-13T01:54:34.745Z,937.16
2023-04-13T01:55:34.740Z,937.17
2023-04-13T01:56:34.717Z,937.19
2023-04-13T01:57:34.695Z,937.26
2023-04-13T01:58:34.730Z,937.23
2023-04-13T01:59:34.684Z,937.33
2023-04-13T02:00:34.686Z,937.28
2023-04-13T02:01:34.661Z,937.30
2023-04-13T02:02:34.761Z,937.22
2023-04-13T02:03:34.696Z,937.17
2023-04-13T02:04:34.636Z,937.18
2023-04-13T02:05:34.613Z,937.15
2023-04-13T02:06:34.596Z,937.14
2023-04-13T02:07:34.586Z,937.11
2023-04-13T02:08:34.605Z,937.12
2023-04-13T02:09:34.575Z,937.08
2023-04-13T02:10:34.550Z,937.02
2023-04-13T02:11:34.556Z,937.07
2023-04-13T02:12:34.525Z,936.95
2023-04-13T02:13:34.511Z,936.97
2023-04-13T02:14:34.517Z,936.97
2023-04-13T02:15:34.507Z,936.93
2023-04-13T02:16:34.511Z,936.98
2023-04-13T02:17:34.484Z,936.95
2023-04-13T02:18:34.464Z,937.00
2023-04-13T02:19:34.460Z,937.01
2023-04-13T02:20:34.462Z,937.01
2023-04-13T02:21:34.418Z,936.98
2023-04-13T02:22:34.409Z,936.97
2023-04-13T02:23:34.405Z,937.01
2023-04-13T02:24:34.400Z,936.92
2023-04-13T02:25:34.390Z,936.91
2023-04-13T02:26:34.392Z,936.96
2023-04-13T02:27:34.372Z,936.94
2023-04-13T02:28:34.397Z,936.98
2023-04-13T02:29:34.332Z,936.95
2023-04-13T02:30:34.313Z,936.99
2023-04-13T02:31:34.338Z,936.98
2023-04-13T02:32:34.331Z,937.04
2023-04-13T02:33:34.298Z,937.05
2023-04-13T02:34:34.287Z,937.07
2023-04-13T02:35:35.605Z,937.02
2023-04-13T02:36:34.244Z,937.04
2023-04-13T02:37:34.233Z,937.01
2023-04-13T02:38:34.214Z,937.02
2023-04-13T02:39:34.212Z,936.99
2023-04-13T02:40:34.213Z,937.01
2023-04-13T02:41:34.214Z,937.01
2023-04-13T02:42:34.184Z,936.96
2023-04-13T02:43:34.180Z,937.03
2023-04-13T02:44:34.186Z,937.01
2023-04-13T02:45:34.203Z,937.12
2023-04-13T02:46:36.336Z,937.13
2023-04-13T02:47:34.144Z,937.10
2023-04-13T02:48:34.107Z,937.12
2023-04-13T02:49:34.123Z,937.09
2023-04-13T02:50:34.097Z,937.06
2023-04-13T02:51:34.094Z,937.07
2023-04-13T02:52:34.086Z,937.11
2023-04-13T02:53:34.090Z,937.12
2023-04-13T02:54:34.061Z,937.07
2023-04-13T02:55:34.044Z,937.05
2023-04-13T02:56:34.074Z,937.08
2023-04-13T02:57:33.996Z,937.06
2023-04-13T02:58:33.989Z,937.10
2023-04-13T02:59:34.072Z,937.09
2023-04-13T03:00:33.981Z,937.06
2023-04-13T03:01:33.986Z,937.09
2023-04-13T03:02:34.055Z,937.05
2023-04-13T03:03:33.934Z,937.07
2023-04-13T03:04:33.995Z,937.10
2023-04-13T03:05:33.948Z,937.14
2023-04-13T03:06:33.892Z,937.09
2023-04-13T03:07:33.879Z,937.10
2023-04-13T03:08:33.888Z,937.11
2023-04-13T03:09:33.856Z,937.15
2023-04-13T03:10:33.844Z,937.17
2023-04-13T03:11:33.850Z,937.19
2023-04-13T03:12:33.841Z,937.22
2023-04-13T03:13:33.837Z,937.19
2023-04-13T03:14:33.801Z,937.22
2023-04-13T03:15:33.792Z,937.20
2023-04-13T03:16:33.823Z,937.21
2023-04-13T03:17:33.812Z,937.16
2023-04-13T03:18:33.764Z,937.17
2023-04-13T03:19:33.744Z,937.18
2023-04-13T03:20:33.733Z,937.18
2023-04-13T03:21:33.742Z,937.20
2023-04-13T03:22:33.721Z,937.22
2023-04-13T03:23:33.700Z,937.25
2023-04-13T03:24:33.691Z,937.25
2023-04-13T03:25:34.166Z,937.25
2023-04-13T03:26:33.671Z,937.22
2023-04-13T03:27:33.676Z,937.15
2023-04-13T03:28:33.683Z,937.20
2023-04-13T03:29:33.653Z,937.28
2023-04-13T03:30:33.623Z,937.30
2023-04-13T03:31:33.632Z,937.34
2023-04-13T03:32:33.680Z,937.34
2023-04-13T03:33:33.604Z,937.45
2023-04-13T03:34:33.593Z,937.39
2023-04-13T03:35:33.568Z,937.41
2023-04-13T03:36:33.565Z,937.39
2023-04-13T03:37:41.220Z,937.36
2023-04-13T03:38:33.560Z,937.43
2023-04-13T03:39:42.223Z,937.43
2023-04-13T03:40:40.678Z,937.41
2023-04-13T03:41:41.280Z,937.36
2023-04-13T03:42:33.494Z,937.31
2023-04-13T03:43:33.476Z,937.27
2023-04-13T03:44:33.498Z,937.31
2023-04-13T03:45:33.449Z,937.27
2023-04-13T03:46:33.469Z,937.33
2023-04-13T03:47:33.517Z,937.21
2023-04-13T03:48:33.412Z,937.18
2023-04-13T03:49:33.423Z,937.13
2023-04-13T03:50:33.391Z,937.13
2023-04-13T03:51:33.391Z,937.06
2023-04-13T03:52:33.366Z,937.08
2023-04-13T03:53:33.350Z,936.99
2023-04-13T03:54:33.387Z,937.07
2023-04-13T03:55:33.371Z,937.10
2023-04-13T03:56:33.317Z,937.09
2023-04-13T03:57:33.315Z,937.07
2023-04-13T03:58:33.299Z,937.05
2023-04-13T03:59:33.284Z,937.09
2023-04-13T04:00:33.315Z,936.99
2023-04-13T04:01:33.262Z,936.96
2023-04-13T04:02:33.355Z,937.06
2023-04-13T04:03:33.375Z,937.05
2023-04-13T04:04:33.234Z,937.07
2023-04-13T04:05:33.233Z,937.09
2023-04-13T04:06:33.213Z,937.14
2023-04-13T04:07:33.212Z,937.22
2023-04-13T04:08:33.181Z,937.24
2023-04-13T04:09:33.178Z,937.26
2023-04-13T04:10:33.158Z,937.24
2023-04-13T04:11:33.168Z,937.33
2023-04-13T04:12:33.137Z,937.27
2023-04-13T04:13:33.128Z,937.33
2023-04-13T04:14:33.112Z,937.35
2023-04-13T04:15:33.163Z,937.43
2023-04-13T04:16:33.146Z,937.48
2023-04-13T04:17:33.119Z,937.48
2023-04-13T04:18:33.084Z,937.48
2023-04-13T04:19:33.135Z,937.53
2023-04-13T04:20:33.063Z,937.53
2023-04-13T04:21:33.040Z,937.55
2023-04-13T04:22:33.038Z,937.57
2023-04-13T04:23:33.405Z,937.57
2023-04-13T04:24:33.006Z,937.54
2023-04-13T04:25:32.989Z,937.54
2023-04-13T04:26:32.985Z,937.55
2023-04-13T04:27:32.988Z,937.54
2023-04-13T04:28:32.966Z,937.57
2023-04-13T04:29:32.945Z,937.58
2023-04-13T04:30:32.942Z,937.63
2023-04-13T04:31:34.145Z,937.65
2023-04-13T04:32:33.019Z,937.61
2023-04-13T04:33:32.902Z,937.62
2023-04-13T04:34:32.904Z,937.69
2023-04-13T04:35:32.871Z,937.63
2023-04-13T04:36:32.872Z,937.66
2023-04-13T04:37:32.854Z,937.73
2023-04-13T04:38:32.899Z,937.69
2023-04-13T04:39:32.918Z,937.75
2023-04-13T04:40:32.813Z,937.76
2023-04-13T04:41:32.811Z,937.75
2023-04-13T04:42:32.794Z,937.81
2023-04-13T04:43:32.830Z,937.88
2023-04-13T04:44:32.801Z,937.89
2023-04-13T04:45:32.786Z,938.01
2023-04-13T04:46:32.756Z,938.02
2023-04-13T04:47:32.795Z,938.03
2023-04-13T04:48:32.739Z,938.02
2023-04-13T04:49:32.729Z,937.98
2023-04-13T04:50:32.721Z,938.01
2023-04-13T04:51:32.696Z,938.02
2023-04-13T04:52:32.675Z,938.09
2023-04-13T04:53:32.664Z,938.13
2023-04-13T04:54:32.686Z,938.12
2023-04-13T04:55:32.647Z,938.12
2023-04-13T04:56:32.633Z,938.06
2023-04-13T04:57:32.628Z,938.11
2023-04-13T04:58:32.634Z,938.04
2023-04-13T04:59:32.590Z,938.05
2023-04-13T05:00:32.584Z,937.99
2023-04-13T05:01:32.700Z,937.99
2023-04-13T05:02:32.683Z,937.96
2023-04-13T05:03:32.571Z,938.03
2023-04-13T05:04:32.552Z,938.07
2023-04-13T05:05:32.586Z,938.11
2023-04-13T05:06:32.513Z,938.10
2023-04-13T05:07:32.520Z,938.15
2023-04-13T05:08:32.493Z,938.17
2023-04-13T05:09:32.496Z,938.19
2023-04-13T05:10:32.470Z,938.24
2023-04-13T05:11:32.493Z,938.20
2023-04-13T05:12:32.451Z,938.23
2023-04-13T05:13:32.433Z,938.20
2023-04-13T05:14:32.456Z,938.20
2023-04-13T05:15:32.411Z,938.23
2023-04-13T05:16:32.540Z,938.21
2023-04-13T05:17:32.439Z,938.24
2023-04-13T05:18:32.376Z,938.29
2023-04-13T05:19:32.394Z,938.34
2023-04-13T05:20:32.427Z,938.34
2023-04-13T05:21:32.361Z,938.35
2023-04-13T05:22:32.374Z,938.35
2023-04-13T05:23:32.382Z,938.39
2023-04-13T05:24:32.397Z,938.38
2023-04-13T05:25:32.295Z,938.40
2023-04-13T05:26:32.317Z,938.51
2023-04-13T05:27:32.276Z,938.53
2023-04-13T05:28:32.281Z,938.62
2023-04-13T05:29:32.258Z,938.56
2023-04-13T05:30:32.255Z,938.57
2023-04-13T05:31:32.319Z,938.60
2023-04-13T05:32:32.256Z,938.61
2023-04-13T05:33:32.222Z,938.61
2023-04-13T05:34:32.238Z,938.67
2023-04-13T05:35:32.193Z,938.66
2023-04-13T05:36:32.202Z,938.63
2023-04-13T05:37:32.198Z,938.67
2023-04-13T05:38:32.252Z,938.67
2023-04-13T05:39:32.192Z,938.71
2023-04-13T05:40:32.128Z,938.70
2023-04-13T05:41:32.117Z,938.70
2023-04-13T05:42:32.125Z,938.73
2023-04-13T05:43:32.096Z,938.70
2023-04-13T05:44:32.096Z,938.78
2023-04-13T05:45:32.144Z,938.74
2023-04-13T05:46:32.059Z,938.74
2023-04-13T05:47:32.104Z,938.67
2023-04-13T05:48:34.247Z,938.70
2023-04-13T05:49:32.050Z,938.64
2023-04-13T05:50:32.068Z,938.60
2023-04-13T05:51:32.023Z,938.62
2023-04-13T05:52:32.027Z,938.57
2023-04-13T05:53:31.982Z,938.60
2023-04-13T05:54:31.969Z,938.66
2023-04-13T05:55:31.965Z,938.60
2023-04-13T05:56:32.011Z,938.62
2023-04-13T05:57:31.936Z,938.55
2023-04-13T05:58:31.945Z,938.52
2023-04-13T05:59:31.914Z,938.53
2023-04-13T06:00:32.433Z,938.49
2023-04-13T06:01:31.911Z,938.51
2023-04-13T06:02:32.013Z,938.52
2023-04-13T06:03:32.064Z,938.57
2023-04-13T06:04:32.100Z,938.52
2023-04-13T06:05:31.859Z,938.55
2023-04-13T06:06:31.900Z,938.57
2023-04-13T06:07:31.853Z,938.62
2023-04-13T06:08:31.878Z,938.68
2023-04-13T06:09:31.794Z,938.66
2023-04-13T06:10:31.783Z,938.65
2023-04-13T06:11:31.772Z,938.63
2023-04-13T06:12:31.777Z,938.55
2023-04-13T06:13:31.803Z,938.52
2023-04-13T06:14:31.770Z,938.52
2023-04-13T06:15:31.760Z,938.47
2023-04-13T06:16:31.733Z,938.50
2023-04-13T06:17:31.742Z,938.45
2023-04-13T06:18:31.690Z,938.51
2023-04-13T06:19:31.686Z,938.48
2023-04-13T06:20:31.686Z,938.51
2023-04-13T06:21:31.664Z,938.49
2023-04-13T06:22:31.683Z,938.51
2023-04-13T06:23:31.632Z,938.56
2023-04-13T06:24:31.735Z,938.62
2023-04-13T06:25:31.645Z,938.60
2023-04-13T06:26:31.610Z,938.57
2023-04-13T06:27:31.591Z,938.60
2023-04-13T06:28:31.594Z,938.60
2023-04-13T06:29:31.565Z,938.57
2023-04-13T06:30:31.561Z,938.59
2023-04-13T06:31:31.596Z,938.51
2023-04-13T06:32:31.555Z,938.47
2023-04-13T06:33:31.576Z,938.43
2023-04-13T06:34:31.527Z,938.43
2023-04-13T06:35:31.574Z,938.43
2023-04-13T06:36:31.486Z,938.44
2023-04-13T06:37:31.535Z,938.42
2023-04-13T06:38:31.497Z,938.41
2023-04-13T06:39:32.905Z,938.46
2023-04-13T06:40:31.518Z,938.40
2023-04-13T06:41:31.437Z,938.43
2023-04-13T06:42:31.440Z,938.47
2023-04-13T06:43:31.439Z,938.49
2023-04-13T06:44:31.398Z,938.50
2023-04-13T06:45:31.382Z,938.56
2023-04-13T06:46:31.408Z,938.58
2023-04-13T06:47:31.407Z,938.59
2023-04-13T06:48:31.368Z,938.64
2023-04-13T06:49:31.358Z,938.63
2023-04-13T06:50:31.330Z,938.72
2023-04-13T06:51:31.313Z,938.65
2023-04-13T06:52:31.300Z,938.71
2023-04-13T06:53:31.291Z,938.71
2023-04-13T06:54:31.325Z,938.72
2023-04-13T06:55:31.267Z,938.74
2023-04-13T06:56:31.293Z,938.69
2023-04-13T06:57:31.270Z,938.71
2023-04-13T06:58:31.256Z,938.73
2023-04-13T06:59:31.246Z,938.72
2023-04-13T07:00:31.256Z,938.79
2023-04-13T07:01:31.299Z,938.77
2023-04-13T07:02:31.320Z,938.82
2023-04-13T07:03:31.320Z,938.86
2023-04-13T07:04:33.782Z,938.85
2023-04-13T07:05:31.171Z,938.84
2023-04-13T07:06:31.140Z,938.89
2023-04-13T07:07:31.150Z,938.90
2023-04-13T07:08:31.127Z,938.89
2023-04-13T07:09:31.108Z,938.87
2023-04-13T07:10:31.108Z,938.86
2023-04-13T07:11:31.089Z,938.86
2023-04-13T07:12:31.103Z,938.84
2023-04-13T07:13:31.783Z,938.85
2023-04-13T07:14:31.098Z,938.87
2023-04-13T07:15:31.149Z,938.87
2023-04-13T07:16:31.213Z,938.90
2023-04-13T07:17:31.133Z,938.92
2023-04-13T07:18:31.203Z,938.88
2023-04-13T07:19:31.013Z,938.84
2023-04-13T07:20:31.092Z,938.84
2023-04-13T07:21:30.971Z,938.89
2023-04-13T07:22:30.967Z,938.87
2023-04-13T07:23:30.945Z,938.93
2023-04-13T07:24:30.948Z,938.93
2023-04-13T07:25:30.956Z,938.89
2023-04-13T07:26:30.911Z,938.93
2023-04-13T07:27:30.911Z,938.94
2023-04-13T07:28:30.937Z,939.02
2023-04-13T07:29:30.910Z,939.11
2023-04-13T07:30:30.862Z,939.05
2023-04-13T07:31:30.897Z,939.06
2023-04-13T07:32:31.657Z,939.05
2023-04-13T07:33:30.893Z,939.03
2023-04-13T07:34:30.834Z,939.04
2023-04-13T07:35:30.814Z,939.15
2023-04-13T07:36:30.805Z,939.10
2023-04-13T07:37:32.069Z,939.11
2023-04-13T07:38:30.918Z,939.12
2023-04-13T07:39:30.762Z,939.17
2023-04-13T07:40:30.749Z,939.15
2023-04-13T07:41:30.747Z,939.16
2023-04-13T07:42:30.757Z,939.23
2023-04-13T07:43:30.714Z,939.16
2023-04-13T07:44:30.718Z,939.15
2023-04-13T07:45:30.691Z,939.15
2023-04-13T07:46:30.718Z,939.14
2023-04-13T07:47:30.689Z,939.17
2023-04-13T07:48:30.656Z,939.18
2023-04-13T07:49:30.644Z,939.17
2023-04-13T07:50:30.685Z,939.13
2023-04-13T07:51:30.624Z,939.18
2023-04-13T07:52:30.605Z,939.22
2023-04-13T07:53:30.616Z,939.17
2023-04-13T07:54:30.579Z,939.13
2023-04-13T07:55:30.573Z,939.24
2023-04-13T07:56:30.598Z,939.24
2023-04-13T07:57:30.551Z,939.27
2023-04-13T07:58:30.536Z,939.27
2023-04-13T07:59:30.701Z,939.29
2023-04-13T08:00:30.531Z,939.29
2023-04-13T08:01:30.501Z,939.32
2023-04-13T08:02:30.629Z,939.31
2023-04-13T08:03:30.636Z,939.38
2023-04-13T08:04:30.687Z,939.31
2023-04-13T08:05:30.565Z,939.26
2023-04-13T08:06:30.441Z,939.27
2023-04-13T08:07:30.449Z,939.26
2023-04-13T08:08:30.483Z,939.27
2023-04-13T08:09:30.411Z,939.29
2023-04-13T08:10:30.410Z,939.33
2023-04-13T08:11:30.413Z,939.39
2023-04-13T08:12:30.376Z,939.38
2023-04-13T08:13:30.396Z,939.36
2023-04-13T08:14:30.388Z,939.34
2023-04-13T08:15:30.379Z,939.50
2023-04-13T08:16:30.361Z,939.39
2023-04-13T08:17:30.350Z,939.42
2023-04-13T08:18:30.308Z,939.38
2023-04-13T08:19:30.296Z,939.47
2023-04-13T08:20:30.317Z,939.43
2023-04-13T08:21:30.274Z,939.40
2023-04-13T08:22:30.316Z,939.41
2023-04-13T08:23:30.255Z,939.41
2023-04-13T08:24:30.240Z,939.39
2023-04-13T08:25:30.234Z,939.43
2023-04-13T08:26:30.251Z,939.44
2023-04-13T08:27:30.231Z,939.49
2023-04-13T08:28:32.078Z,939.49
2023-04-13T08:29:30.188Z,939.47
2023-04-13T08:30:30.192Z,939.48
2023-04-13T08:31:30.244Z,939.53
2023-04-13T08:32:30.244Z,939.51
2023-04-13T08:33:30.138Z,939.55
2023-04-13T08:34:30.135Z,939.54
2023-04-13T08:35:30.137Z,939.58
2023-04-13T08:36:30.103Z,939.59
2023-04-13T08:37:30.104Z,939.56
2023-04-13T08:38:30.115Z,939.54
2023-04-13T08:39:30.066Z,939.55
2023-04-13T08:40:30.063Z,939.56
2023-04-13T08:41:30.052Z,939.53
2023-04-13T08:42:30.059Z,939.55
2023-04-13T08:43:30.046Z,939.59
2023-04-13T08:44:30.075Z,939.55
2023-04-13T08:45:29.998Z,939.55
2023-04-13T08:46:30.011Z,939.51
2023-04-13T08:47:30.003Z,939.53
2023-04-13T08:48:39.010Z,939.46
2023-04-13T08:49:30.952Z,939.48
2023-04-13T08:50:29.959Z,939.54
2023-04-13T08:51:29.937Z,939.51
2023-04-13T08:52:29.924Z,939.51
2023-04-13T08:53:29.975Z,939.55
2023-04-13T08:54:29.910Z,939.52
2023-04-13T08:55:29.894Z,939.62
2023-04-13T08:56:42.115Z,939.65
2023-04-13T08:57:30.885Z,939.57
2023-04-13T08:58:29.862Z,939.57
2023-04-13T08:59:29.903Z,939.64
2023-04-13T09:00:29.841Z,939.54
2023-04-13T09:01:30.149Z,939.56
2023-04-13T09:02:29.947Z,939.63
2023-04-13T09:03:29.995Z,939.63
2023-04-13T09:04:30.177Z,939.65
2023-04-13T09:05:29.771Z,939.69
2023-04-13T09:06:29.766Z,939.67
2023-04-13T09:07:29.769Z,939.73
2023-04-13T09:08:29.749Z,939.68
2023-04-13T09:09:29.723Z,939.74
2023-04-13T09:10:29.721Z,939.75
2023-04-13T09:11:29.728Z,939.71
2023-04-13T09:12:29.916Z,939.70
2023-04-13T09:13:29.673Z,939.65
2023-04-13T09:14:31.528Z,939.66
2023-04-13T09:15:29.689Z,939.71
2023-04-13T09:16:29.704Z,939.79
2023-04-13T09:17:29.744Z,939.80
2023-04-13T09:18:29.620Z,939.76
2023-04-13T09:19:29.625Z,939.74
2023-04-13T09:20:29.623Z,939.86
2023-04-13T09:21:29.586Z,939.78
2023-04-13T09:22:29.581Z,939.81
2023-04-13T09:23:29.561Z,939.81
2023-04-13T09:24:29.575Z,939.78
2023-04-13T09:25:29.547Z,939.75
2023-04-13T09:26:29.546Z,939.69
2023-04-13T09:27:29.537Z,939.74
2023-04-13T09:28:29.506Z,939.78
2023-04-13T09:29:29.493Z,939.74
2023-04-13T09:30:29.494Z,939.74
2023-04-13T09:31:29.538Z,939.78
2023-04-13T09:32:29.510Z,939.75
2023-04-13T09:33:29.449Z,939.76
2023-04-13T09:34:29.448Z,939.78
2023-04-13T09:35:29.428Z,939.80
2023-04-13T09:36:29.460Z,939.82
2023-04-13T09:37:29.463Z,939.78
2023-04-13T09:38:29.393Z,939.75
2023-04-13T09:39:29.498Z,939.76
2023-04-13T09:40:29.454Z,939.75
2023-04-13T09:41:29.386Z,939.70
2023-04-13T09:42:29.367Z,939.69
2023-04-13T09:43:29.364Z,939.73
2023-04-13T09:44:29.351Z,939.72
2023-04-13T09:45:29.337Z,939.75
2023-04-13T09:46:29.368Z,939.75
2023-04-13T09:47:29.306Z,939.76
2023-04-13T09:48:29.279Z,939.80
2023-04-13T09:49:29.300Z,939.76
2023-04-13T09:50:29.264Z,939.77
2023-04-13T09:51:29.247Z,939.76
2023-04-13T09:52:29.251Z,939.81
2023-04-13T09:53:29.249Z,939.85
2023-04-13T09:54:29.254Z,939.87
2023-04-13T09:55:29.211Z,939.89
2023-04-13T09:56:29.191Z,939.95
2023-04-13T09:57:29.173Z,939.89
2023-04-13T09:58:29.184Z,939.92
2023-04-13T09:59:29.154Z,939.85
2023-04-13T10:00:29.144Z,939.93
2023-04-13T10:01:29.167Z,939.92
2023-04-13T10:02:29.443Z,939.96
2023-04-13T10:03:29.186Z,939.92
2023-04-13T10:04:29.103Z,939.94
2023-04-13T10:05:29.330Z,939.96
2023-04-13T10:06:29.079Z,939.92
2023-04-13T10:07:29.098Z,940.04
2023-04-13T10:08:37.472Z,940.05
2023-04-13T10:09:30.035Z,940.03
2023-04-13T10:10:29.026Z,940.03
2023-04-13T10:11:29.016Z,940.06
2023-04-13T10:12:29.022Z,940.11
2023-04-13T10:13:29.004Z,940.04
2023-04-13T10:14:29.001Z,940.03
2023-04-13T10:15:28.973Z,940.00
2023-04-13T10:16:29.064Z,939.94
2023-04-13T10:17:29.077Z,939.91
2023-04-13T10:18:29.008Z,939.91
2023-04-13T10:19:28.937Z,939.87
2023-04-13T10:20:28.933Z,939.80
2023-04-13T10:21:28.919Z,939.91
2023-04-13T10:22:28.891Z,939.84
2023-04-13T10:23:28.879Z,939.83
2023-04-13T10:24:28.913Z,939.87
2023-04-13T10:25:33.901Z,939.82
2023-04-13T10:26:29.844Z,939.84
2023-04-13T10:27:28.844Z,939.91
2023-04-13T10:28:28.842Z,939.80
2023-04-13T10:29:28.812Z,939.84
2023-04-13T10:30:28.802Z,939.89
2023-04-13T10:31:28.888Z,939.88
2023-04-13T10:32:28.864Z,939.88
2023-04-13T10:33:28.787Z,939.88
2023-04-13T10:34:28.755Z,939.85
2023-04-13T10:35:28.744Z,939.82
2023-04-13T10:36:28.731Z,939.73
2023-04-13T10:37:28.887Z,939.81
2023-04-13T10:38:28.708Z,939.83
2023-04-13T10:39:28.710Z,939.89
2023-04-13T10:40:28.730Z,939.93
2023-04-13T10:41:28.699Z,939.90
2023-04-13T10:42:28.675Z,939.89
2023-04-13T10:43:28.662Z,939.87
2023-04-13T10:44:28.639Z,939.84
2023-04-13T10:45:28.682Z,939.87
2023-04-13T10:46:28.638Z,939.85
2023-04-13T10:47:28.733Z,939.82
2023-04-13T10:48:28.607Z,939.83
2023-04-13T10:49:28.607Z,939.84
2023-04-13T10:50:28.564Z,939.87
2023-04-13T10:51:30.739Z,939.84
2023-04-13T10:52:28.575Z,939.86
2023-04-13T10:53:28.568Z,939.85
2023-04-13T10:54:28.532Z,939.86
2023-04-13T10:55:28.506Z,939.86
2023-04-13T10:56:28.520Z,939.84
2023-04-13T10:57:28.508Z,939.86
2023-04-13T10:58:30.015Z,939.80
2023-04-13T10:59:28.478Z,939.79
2023-04-13T11:00:44.218Z,939.81
2023-04-13T11:01:29.457Z,939.83
2023-04-13T11:02:28.494Z,939.76
2023-04-13T11:03:28.483Z,939.83
2023-04-13T11:04:28.487Z,939.81
2023-04-13T11:05:28.422Z,939.84
2023-04-13T11:06:28.389Z,939.83
2023-04-13T11:07:28.373Z,939.80
2023-04-13T11:08:28.516Z,939.95
2023-04-13T11:09:28.352Z,939.99
2023-04-13T11:10:28.377Z,939.97
2023-04-13T11:11:28.325Z,939.97
2023-04-13T11:12:28.340Z,939.96
2023-04-13T11:13:28.312Z,939.97
2023-04-13T11:14:28.293Z,939.99
2023-04-13T11:15:28.314Z,939.94
2023-04-13T11:16:28.322Z,939.91
2023-04-13T11:17:28.648Z,940.00
2023-04-13T11:18:28.254Z,939.93
2023-04-13T11:19:28.248Z,939.92
2023-04-13T11:20:28.253Z,939.95
2023-04-13T11:21:28.210Z,939.95
2023-04-13T11:22:28.213Z,939.94
2023-04-13T11:23:28.200Z,939.91
2023-04-13T11:24:28.186Z,939.98
2023-04-13T11:25:28.187Z,939.93
2023-04-13T11:26:28.152Z,939.96
2023-04-13T11:27:28.158Z,939.88
2023-04-13T11:28:28.156Z,939.91
2023-04-13T11:29:28.118Z,939.90
2023-04-13T11:30:28.128Z,939.91
2023-04-13T11:31:28.128Z,939.83
2023-04-13T11:32:28.204Z,939.82
2023-04-13T11:33:28.071Z,939.81
2023-04-13T11:34:28.082Z,939.81
2023-04-13T11:35:28.087Z,939.78
2023-04-13T11:36:28.040Z,939.80
2023-04-13T11:37:28.050Z,939.83
2023-04-13T11:38:28.036Z,939.79
2023-04-13T11:39:28.000Z,939.85
2023-04-13T11:40:28.003Z,939.84
2023-04-13T11:41:27.977Z,939.80
2023-04-13T11:42:27.989Z,939.80
2023-04-13T11:43:27.976Z,939.86
2023-04-13T11:44:27.959Z,939.88
2023-04-13T11:45:27.930Z,939.87
2023-04-13T11:46:27.982Z,939.92
2023-04-13T11:47:27.919Z,939.86
2023-04-13T11:48:27.923Z,939.89
2023-04-13T11:49:27.906Z,939.95
2023-04-13T11:50:27.887Z,939.90
2023-04-13T11:51:27.858Z,939.89
2023-04-13T11:52:27.866Z,939.93
2023-04-13T11:53:27.862Z,939.96
2023-04-13T11:54:27.847Z,939.97
2023-04-13T11:55:27.817Z,940.01
2023-04-13T11:56:27.819Z,940.03
2023-04-13T11:57:27.799Z,939.97
2023-04-13T11:58:27.814Z,940.02
2023-04-13T11:59:27.769Z,939.99
2023-04-13T12:00:27.793Z,939.92
2023-04-13T12:01:33.608Z,939.89
2023-04-13T12:03:42.059Z,939.85
2023-04-13T12:04:28.877Z,939.87
2023-04-13T12:05:27.867Z,939.82
2023-04-13T12:06:28.103Z,939.81
2023-04-13T12:07:28.188Z,939.78
2023-04-13T12:08:28.133Z,939.81
2023-04-13T12:09:54.546Z,939.78
2023-04-13T12:10:38.199Z,939.80
2023-04-13T12:16:45.263Z,939.75
2023-04-13T12:17:39.170Z,939.75
2023-04-13T12:18:34.282Z,939.77
2023-04-13T12:19:30.283Z,939.78
2023-04-13T12:20:27.681Z,939.79
2023-04-13T12:21:28.922Z,939.81
2023-04-13T12:22:27.622Z,939.81
2023-04-13T12:23:28.059Z,939.82
2023-04-13T12:24:30.397Z,939.83
2023-04-13T12:25:35.686Z,939.80
2023-04-13T12:27:14.946Z,939.77
2023-04-13T12:27:28.449Z,939.78
2023-04-13T12:28:27.451Z,939.76
2023-04-13T12:29:27.433Z,939.77
2023-04-13T12:30:27.416Z,939.79
2023-04-13T12:31:27.441Z,939.86
2023-04-13T12:32:27.458Z,939.84
2023-04-13T12:33:27.396Z,939.86
2023-04-13T12:34:27.366Z,939.88